Time;durP1;ratioP1;P1;durP2;ratioP2;P2;SDS_P1;SDS_P2;PMS_P1;PMS_P2;Temp;Humidity;BMP_temperature;BMP_pressure;BME280_temperature;BME280_humidity;BME280_pressure;Samples;Min_cycle;Max_cycle;Signal;HPM_P1;HPM_P2
2023/02/12 00:00:11;;;;;;;57.95;28.13;;;;;;;;;;5038121;28;20558;-73
2023/02/12 00:02:37;;;;;;;65.18;31.67;;;;;;;;;;5037109;28;20036;-73
2023/02/12 00:05:03;;;;;;;60.08;31.05;;;;;;;;;;5039319;28;20029;-73
2023/02/12 00:07:30;;;;;;;106.20;48.45;;;;;;;;;;5043803;28;20041;-73
2023/02/12 00:09:56;;;;;;;123.05;50.15;;;;;;;;;;5048168;28;20466;-73
2023/02/12 00:12:22;;;;;;;114.15;49.35;;;;;;;;;;5040128;28;20505;-73
2023/02/12 00:14:49;;;;;;;111.28;45.45;;;;;;;;;;5041837;28;20137;-73
2023/02/12 00:17:15;;;;;;;99.47;41.25;;;;;;;;;;5035837;28;20410;-73
2023/02/12 00:19:40;;;;;;;81.22;38.63;;;;;;;;;;5042760;28;20036;-73
2023/02/12 00:22:06;;;;;;;82.20;38.40;;;;;;;;;;5036141;28;20116;-73
2023/02/12 00:24:32;;;;;;;85.35;39.50;;;;;;;;;;5042021;28;20041;-73
2023/02/12 00:26:58;;;;;;;82.90;39.90;;;;;;;;;;5040610;28;20033;-73
2023/02/12 00:29:24;;;;;;;118.07;57.92;;;;;;;;;;5032548;28;20040;-73
2023/02/12 00:31:51;;;;;;;155.43;69.85;;;;;;;;;;5042173;28;20469;-73
2023/02/12 00:34:17;;;;;;;138.02;61.70;;;;;;;;;;5043237;28;20052;-73
2023/02/12 00:36:43;;;;;;;132.75;61.13;;;;;;;;;;5041263;28;20195;-73
2023/02/12 00:39:09;;;;;;;112.68;52.88;;;;;;;;;;5045407;28;20159;-73
2023/02/12 00:41:35;;;;;;;97.57;45.40;;;;;;;;;;5041441;28;20029;-74
2023/02/12 00:44:01;;;;;;;72.45;35.97;;;;;;;;;;5047761;28;20513;-73
2023/02/12 00:46:27;;;;;;;69.88;35.33;;;;;;;;;;5046378;28;20044;-73
2023/02/12 00:48:53;;;;;;;69.93;33.50;;;;;;;;;;5047753;28;20040;-73
2023/02/12 00:51:20;;;;;;;66.15;31.02;;;;;;;;;;5036766;28;20033;-73
2023/02/12 00:53:45;;;;;;;73.68;38.35;;;;;;;;;;5048283;28;20508;-73
2023/02/12 00:56:12;;;;;;;63.63;35.25;;;;;;;;;;5038741;28;20037;-73
2023/02/12 00:58:38;;;;;;;66.75;33.70;;;;;;;;;;5044416;28;20143;-73
2023/02/12 01:01:04;;;;;;;58.83;30.27;;;;;;;;;;5043965;28;20520;-73
2023/02/12 01:03:30;;;;;;;52.53;28.55;;;;;;;;;;5031143;28;20113;-73
2023/02/12 01:05:56;;;;;;;59.83;29.88;;;;;;;;;;5037517;28;20067;-73
2023/02/12 01:08:22;;;;;;;52.78;27.80;;;;;;;;;;5045299;28;20024;-73
2023/02/12 01:10:55;;;;;;;54.28;29.80;;;;;;;;;;5035589;28;20102;-73
2023/02/12 01:13:21;;;;;;;57.38;31.20;;;;;;;;;;5047142;28;20084;-73
2023/02/12 01:15:47;;;;;;;60.10;35.80;;;;;;;;;;5043708;28;20107;-73
2023/02/12 01:18:15;;;;;;;55.65;30.52;;;;;;;;;;5038396;28;20052;-73
2023/02/12 01:20:41;;;;;;;50.72;26.65;;;;;;;;;;5043556;28;20043;-73
2023/02/12 01:23:07;;;;;;;53.15;27.73;;;;;;;;;;5041693;28;20029;-73
2023/02/12 01:25:33;;;;;;;48.78;28.63;;;;;;;;;;5036928;28;20053;-73
2023/02/12 01:27:59;;;;;;;49.90;27.63;;;;;;;;;;5042417;28;20389;-73
2023/02/12 01:30:25;;;;;;;44.55;24.67;;;;;;;;;;5044545;28;20074;-73
2023/02/12 01:32:51;;;;;;;51.05;27.50;;;;;;;;;;5042816;28;20074;-74
2023/02/12 01:35:17;;;;;;;48.25;27.38;;;;;;;;;;5037081;28;20399;-73
2023/02/12 01:37:43;;;;;;;49.28;24.73;;;;;;;;;;5043143;28;20037;-73
2023/02/12 01:40:09;;;;;;;47.90;25.23;;;;;;;;;;5044996;28;20038;-74
2023/02/12 01:42:35;;;;;;;45.05;25.90;;;;;;;;;;5046585;28;20123;-73
2023/02/12 01:45:13;;;;;;;48.88;26.13;;;;;;;;;;5043478;28;20030;-73
2023/02/12 01:47:43;;;;;;;45.30;25.20;;;;;;;;;;5039668;28;20056;-74
2023/02/12 01:50:12;;;;;;;45.75;23.65;;;;;;;;;;5042068;28;20083;-73
2023/02/12 01:52:39;;;;;;;44.28;25.05;;;;;;;;;;5044567;28;20061;-73
2023/02/12 01:55:07;;;;;;;44.05;23.90;;;;;;;;;;5036764;28;20025;-74
2023/02/12 01:57:34;;;;;;;42.75;23.85;;;;;;;;;;5033669;28;20075;-73
2023/02/12 02:00:01;;;;;;;44.17;22.83;;;;;;;;;;5044577;28;20080;-73
2023/02/12 02:02:28;;;;;;;43.25;22.05;;;;;;;;;;5036482;28;20033;-73
2023/02/12 02:04:56;;;;;;;45.08;23.85;;;;;;;;;;5040006;28;20151;-73
2023/02/12 02:07:22;;;;;;;44.72;24.13;;;;;;;;;;5038577;28;20029;-73
2023/02/12 02:09:49;;;;;;;42.22;22.05;;;;;;;;;;5043909;28;20539;-73
2023/02/12 02:15:01;;;;;;;42.25;23.38;;;;;;;;;;5043095;28;20056;-73
2023/02/12 02:17:45;;;;;;;47.03;24.92;;;;;;;;;;5037922;28;20546;-73
2023/02/12 02:20:30;;;;;;;42.60;23.80;;;;;;;;;;5035481;28;20041;-73
2023/02/12 02:23:08;;;;;;;42.53;22.75;;;;;;;;;;5039095;28;20029;-73
2023/02/12 02:25:46;;;;;;;45.30;25.73;;;;;;;;;;5041918;28;20033;-73
2023/02/12 02:28:12;;;;;;;40.80;25.35;;;;;;;;;;5047301;28;20090;-73
2023/02/12 02:30:51;;;;;;;52.72;27.75;;;;;;;;;;5042216;28;20072;-73
2023/02/12 02:33:35;;;;;;;43.90;26.17;;;;;;;;;;5029966;28;20037;-74
2023/02/12 02:36:07;;;;;;;37.97;22.48;;;;;;;;;;5039752;28;20041;-73
2023/02/12 02:38:33;;;;;;;;;;;;;;;;;;5029089;28;20040;-73
2023/02/12 02:41:06;;;;;;;37.45;22.13;;;;;;;;;;5044662;28;19913;-73
2023/02/12 02:43:38;;;;;;;39.33;21.40;;;;;;;;;;5043136;28;20145;-73
2023/02/12 02:46:06;;;;;;;36.53;19.95;;;;;;;;;;5035456;28;20033;-73
2023/02/12 02:48:35;;;;;;;31.10;16.95;;;;;;;;;;5044579;28;20055;-73
2023/02/12 02:51:05;;;;;;;30.73;16.13;;;;;;;;;;5038234;28;20092;-73
2023/02/12 02:53:33;;;;;;;25.67;15.27;;;;;;;;;;5045187;28;20033;-74
2023/02/12 02:56:01;;;;;;;31.00;15.25;;;;;;;;;;5047076;28;20493;-73
2023/02/12 02:58:31;;;;;;;27.02;15.20;;;;;;;;;;5048152;28;20475;-73
2023/02/12 03:01:02;;;;;;;27.35;14.02;;;;;;;;;;5038220;28;20037;-73
2023/02/12 03:03:37;;;;;;;29.00;15.95;;;;;;;;;;5040792;28;20510;-74
2023/02/12 03:06:29;;;;;;;28.38;14.00;;;;;;;;;;5036692;28;20778;-73
2023/02/12 03:08:57;;;;;;;30.02;14.48;;;;;;;;;;5034318;28;20045;-73
2023/02/12 03:11:25;;;;;;;31.55;13.25;;;;;;;;;;5036051;28;20463;-73
2023/02/12 03:14:09;;;;;;;26.15;12.65;;;;;;;;;;5039304;28;20044;-73
2023/02/12 03:16:41;;;;;;;27.83;12.88;;;;;;;;;;5036845;28;20045;-73
2023/02/12 03:19:15;;;;;;;29.27;14.73;;;;;;;;;;5036077;28;20037;-73
2023/02/12 03:21:41;;;;;;;29.83;14.25;;;;;;;;;;5041083;28;20039;-73
2023/02/12 03:24:11;;;;;;;31.80;17.30;;;;;;;;;;5048833;28;20042;-73
2023/02/12 03:26:43;;;;;;;29.60;16.48;;;;;;;;;;5039197;28;20026;-73
2023/02/12 03:29:09;;;;;;;;;;;;;;;;;;5034832;28;20080;-73
2023/02/12 03:32:08;;;;;;;33.03;18.58;;;;;;;;;;5032107;28;19944;-73
2023/02/12 03:34:36;;;;;;;39.45;19.77;;;;;;;;;;5007585;28;20041;-73
2023/02/12 03:37:02;;;;;;;34.10;18.42;;;;;;;;;;5040292;28;20029;-73
2023/02/12 03:39:31;;;;;;;30.75;17.05;;;;;;;;;;5036374;28;20040;-74
2023/02/12 03:42:03;;;;;;;29.65;17.48;;;;;;;;;;5036821;28;20029;-73
2023/02/12 03:44:38;;;;;;;30.50;17.02;;;;;;;;;;5044896;28;20136;-73
2023/02/12 03:47:28;;;;;;;31.35;16.30;;;;;;;;;;5044515;28;20033;-73
2023/02/12 03:49:59;;;;;;;34.28;18.98;;;;;;;;;;5004917;28;20116;-73
2023/02/12 03:52:25;;;;;;;32.53;17.33;;;;;;;;;;5041778;28;20041;-73
2023/02/12 03:54:51;;;;;;;29.48;16.88;;;;;;;;;;5044831;28;20052;-73
2023/02/12 03:57:19;;;;;;;28.52;16.98;;;;;;;;;;5040609;28;20043;-73
2023/02/12 03:59:46;;;;;;;33.08;18.50;;;;;;;;;;5048953;28;20443;-73
2023/02/12 04:02:12;;;;;;;30.48;17.77;;;;;;;;;;5033315;28;20025;-73
2023/02/12 04:04:38;;;;;;;28.27;15.30;;;;;;;;;;5044900;28;20037;-73
2023/02/12 04:07:04;;;;;;;30.00;17.58;;;;;;;;;;5038795;28;20111;-73
2023/02/12 04:09:31;;;;;;;28.90;14.90;;;;;;;;;;5040885;28;20429;-73
2023/02/12 04:11:57;;;;;;;25.58;14.55;;;;;;;;;;5042407;28;20064;-73
2023/02/12 04:14:23;;;;;;;21.60;12.43;;;;;;;;;;5038685;28;20068;-73
2023/02/12 04:16:58;;;;;;;21.23;11.88;;;;;;;;;;5034521;28;20041;-73
2023/02/12 04:19:34;;;;;;;24.38;14.00;;;;;;;;;;5046098;28;20560;-73
2023/02/12 04:22:06;;;;;;;21.33;10.82;;;;;;;;;;5026140;28;20068;-72
2023/02/12 04:24:44;;;;;;;26.15;12.90;;;;;;;;;;5039773;28;20037;-73
2023/02/12 04:27:16;;;;;;;21.50;12.43;;;;;;;;;;5039062;28;20101;-73
2023/02/12 04:29:42;;;;;;;;;;;;;;;;;;5044435;28;20684;-72
2023/02/12 04:32:14;;;;;;;24.08;12.52;;;;;;;;;;5044404;28;19920;-74
2023/02/12 04:34:52;;;;;;;25.98;13.00;;;;;;;;;;5046245;28;20111;-73
2023/02/12 04:37:42;;;;;;;25.73;13.52;;;;;;;;;;5039793;28;20554;-73
2023/02/12 04:40:11;;;;;;;27.00;14.13;;;;;;;;;;5037670;28;20053;-73
2023/02/12 04:42:43;;;;;;;25.15;13.23;;;;;;;;;;5044850;28;20045;-73
2023/02/12 04:45:10;;;;;;;25.95;13.82;;;;;;;;;;5043488;28;20037;-73
2023/02/12 04:47:36;;;;;;;25.65;13.52;;;;;;;;;;5044778;28;20033;-74
2023/02/12 04:50:02;;;;;;;25.67;13.95;;;;;;;;;;5047086;28;20033;-74
2023/02/12 04:52:28;;;;;;;25.25;13.10;;;;;;;;;;5040253;28;20052;-73
2023/02/12 04:54:54;;;;;;;23.88;12.70;;;;;;;;;;5035924;28;20032;-73
2023/02/12 04:57:20;;;;;;;23.42;12.77;;;;;;;;;;5042986;28;20438;-73
2023/02/12 04:59:46;;;;;;;27.60;15.35;;;;;;;;;;5037465;28;20053;-73
2023/02/12 05:02:12;;;;;;;23.48;12.27;;;;;;;;;;5043796;28;20033;-73
2023/02/12 05:04:38;;;;;;;23.80;14.15;;;;;;;;;;5041711;28;20083;-73
2023/02/12 05:07:04;;;;;;;27.42;14.23;;;;;;;;;;5038732;28;20075;-73
2023/02/12 05:09:30;;;;;;;27.45;15.20;;;;;;;;;;5036186;28;20453;-73
2023/02/12 05:11:56;;;;;;;30.83;16.20;;;;;;;;;;5036794;28;20029;-73
2023/02/12 05:14:25;;;;;;;26.80;14.15;;;;;;;;;;5037534;28;20037;-73
2023/02/12 05:16:51;;;;;;;26.23;14.90;;;;;;;;;;5038272;28;20107;-73
2023/02/12 05:19:17;;;;;;;26.60;15.07;;;;;;;;;;5034528;28;20034;-73
2023/02/12 05:21:43;;;;;;;26.33;14.05;;;;;;;;;;5035553;28;20442;-73
2023/02/12 05:24:09;;;;;;;26.88;14.38;;;;;;;;;;5039896;28;20044;-73
2023/02/12 05:26:36;;;;;;;28.55;17.55;;;;;;;;;;5036938;28;20037;-73
2023/02/12 05:29:02;;;;;;;36.58;19.65;;;;;;;;;;5037381;28;20405;-73
2023/02/12 05:31:28;;;;;;;34.33;19.08;;;;;;;;;;5035879;28;20033;-73
2023/02/12 05:33:54;;;;;;;32.63;18.75;;;;;;;;;;5043604;28;20075;-73
2023/02/12 05:36:22;;;;;;;36.88;19.92;;;;;;;;;;5045452;28;20515;-73
2023/02/12 05:38:48;;;;;;;35.58;19.65;;;;;;;;;;5039165;28;20809;-73
2023/02/12 05:41:15;;;;;;;36.10;20.05;;;;;;;;;;5037315;28;20378;-73
2023/02/12 05:43:41;;;;;;;36.80;21.40;;;;;;;;;;5037221;28;20083;-73
2023/02/12 05:46:08;;;;;;;34.90;20.30;;;;;;;;;;5032612;28;20033;-73
2023/02/12 05:48:34;;;;;;;37.45;19.00;;;;;;;;;;5039765;28;20108;-73
2023/02/12 05:51:03;;;;;;;40.65;21.95;;;;;;;;;;5040826;28;20033;-73
2023/02/12 05:53:30;;;;;;;34.55;20.48;;;;;;;;;;5028042;28;20034;-73
2023/02/12 05:56:05;;;;;;;33.53;20.65;;;;;;;;;;5041251;28;20071;-73
2023/02/12 05:58:30;;;;;;;36.13;18.83;;;;;;;;;;5037418;28;20033;-73
2023/02/12 06:00:56;;;;;;;33.60;17.80;;;;;;;;;;5036521;28;20037;-73
2023/02/12 06:03:22;;;;;;;31.05;18.45;;;;;;;;;;5045929;28;20059;-73
2023/02/12 06:05:52;;;;;;;32.13;17.83;;;;;;;;;;5041061;28;20033;-73
2023/02/12 06:08:18;;;;;;;31.77;20.20;;;;;;;;;;5041770;28;20068;-73
2023/02/12 06:10:44;;;;;;;30.23;18.88;;;;;;;;;;5044026;28;20949;-73
2023/02/12 06:13:10;;;;;;;33.03;17.77;;;;;;;;;;5046373;28;20037;-73
2023/02/12 06:15:36;;;;;;;34.28;17.80;;;;;;;;;;5039745;28;20701;-73
2023/02/12 06:18:02;;;;;;;35.10;16.15;;;;;;;;;;5040371;28;20104;-73
2023/02/12 06:20:28;;;;;;;31.30;17.73;;;;;;;;;;5040747;28;20079;-73
2023/02/12 06:22:54;;;;;;;30.98;18.58;;;;;;;;;;5047600;28;20859;-73
2023/02/12 06:25:20;;;;;;;39.15;19.95;;;;;;;;;;5041345;28;20048;-73
2023/02/12 06:27:46;;;;;;;34.67;19.45;;;;;;;;;;5045284;28;20100;-73
2023/02/12 06:30:13;;;;;;;35.83;19.10;;;;;;;;;;5041547;28;20160;-72
2023/02/12 06:32:39;;;;;;;32.88;16.58;;;;;;;;;;5047841;28;20191;-72
2023/02/12 06:35:05;;;;;;;33.40;19.65;;;;;;;;;;5039266;28;20228;-73
2023/02/12 06:37:31;;;;;;;31.98;17.20;;;;;;;;;;5043250;28;20054;-74
2023/02/12 06:39:57;;;;;;;30.77;18.85;;;;;;;;;;5046715;28;20048;-73
2023/02/12 06:42:23;;;;;;;26.02;14.18;;;;;;;;;;5043139;28;20049;-73
2023/02/12 06:44:49;;;;;;;30.55;17.20;;;;;;;;;;5035213;28;20049;-73
2023/02/12 06:47:15;;;;;;;30.67;15.85;;;;;;;;;;5043222;28;20545;-73
2023/02/12 06:49:41;;;;;;;31.20;17.00;;;;;;;;;;5045757;28;20787;-74
2023/02/12 06:52:07;;;;;;;32.25;15.27;;;;;;;;;;5048093;28;20029;-73
2023/02/12 06:54:33;;;;;;;27.73;15.35;;;;;;;;;;5041711;28;20705;-73
2023/02/12 06:56:59;;;;;;;30.38;17.55;;;;;;;;;;5036010;28;20040;-73
2023/02/12 06:59:25;;;;;;;33.30;18.30;;;;;;;;;;5040513;28;20450;-73
2023/02/12 07:01:51;;;;;;;43.15;23.67;;;;;;;;;;5040771;28;20029;-73
2023/02/12 07:04:17;;;;;;;46.45;24.02;;;;;;;;;;5038948;28;20037;-73
2023/02/12 07:06:43;;;;;;;42.58;23.85;;;;;;;;;;5041808;28;20159;-72
2023/02/12 07:09:09;;;;;;;41.78;22.48;;;;;;;;;;5041063;28;20070;-72
2023/02/12 07:11:36;;;;;;;43.63;23.80;;;;;;;;;;5040009;28;20030;-72
2023/02/12 07:14:02;;;;;;;39.90;22.35;;;;;;;;;;5042220;28;20072;-73
2023/02/12 07:16:28;;;;;;;45.63;23.58;;;;;;;;;;5042041;28;20023;-73
2023/02/12 07:18:54;;;;;;;41.65;23.40;;;;;;;;;;5047319;28;20134;-73
2023/02/12 07:21:20;;;;;;;41.25;23.38;;;;;;;;;;5041933;28;20048;-72
2023/02/12 07:23:50;;;;;;;43.25;23.05;;;;;;;;;;5043854;28;20033;-72
2023/02/12 07:26:16;;;;;;;39.58;22.05;;;;;;;;;;5041085;28;20029;-73
2023/02/12 07:28:43;;;;;;;39.30;20.90;;;;;;;;;;5036086;28;20072;-73
2023/02/12 07:31:13;;;;;;;42.90;21.90;;;;;;;;;;5039176;28;20038;-72
2023/02/12 07:33:39;;;;;;;42.47;23.90;;;;;;;;;;5039229;28;20071;-73
2023/02/12 07:36:07;;;;;;;42.72;24.60;;;;;;;;;;5039713;28;20075;-74
2023/02/12 07:38:35;;;;;;;37.38;21.45;;;;;;;;;;5040409;28;20037;-73
2023/02/12 07:41:27;;;;;;;37.88;21.25;;;;;;;;;;5045207;28;20128;-72
2023/02/12 07:43:54;;;;;;;37.78;21.50;;;;;;;;;;5038218;28;20053;-73
2023/02/12 07:46:28;;;;;;;38.78;20.33;;;;;;;;;;5040156;28;20037;-72
2023/02/12 07:48:54;;;;;;;40.90;22.08;;;;;;;;;;5040615;28;20182;-73
2023/02/12 07:51:20;;;;;;;38.15;20.50;;;;;;;;;;5033563;28;20094;-73
2023/02/12 07:53:46;;;;;;;36.63;20.77;;;;;;;;;;5041505;28;20612;-72
2023/02/12 07:56:13;;;;;;;37.80;19.33;;;;;;;;;;5035866;28;20072;-72
2023/02/12 07:58:40;;;;;;;38.58;21.20;;;;;;;;;;5037323;28;20468;-73
2023/02/12 08:01:12;;;;;;;32.10;18.20;;;;;;;;;;5039969;28;20029;-73
2023/02/12 08:03:42;;;;;;;36.90;21.88;;;;;;;;;;5040589;28;20037;-72
2023/02/12 08:06:11;;;;;;;32.25;19.08;;;;;;;;;;5043917;28;20031;-72
2023/02/12 08:08:38;;;;;;;37.05;20.42;;;;;;;;;;5038249;28;20470;-72
2023/02/12 08:11:14;;;;;;;38.83;19.85;;;;;;;;;;5036566;28;20029;-72
2023/02/12 08:13:40;;;;;;;36.70;20.08;;;;;;;;;;5037406;28;20034;-72
2023/02/12 08:16:07;;;;;;;35.22;18.10;;;;;;;;;;5034904;28;20049;-73
2023/02/12 08:18:34;;;;;;;36.65;19.10;;;;;;;;;;5043517;28;20467;-73
2023/02/12 08:21:03;;;;;;;32.28;19.48;;;;;;;;;;5036686;28;20724;-73
2023/02/12 08:23:30;;;;;;;36.63;19.67;;;;;;;;;;5039700;28;20048;-73
2023/02/12 08:26:03;;;;;;;34.33;19.88;;;;;;;;;;5041200;28;20063;-73
2023/02/12 08:28:29;;;;;;;35.08;20.88;;;;;;;;;;5037693;28;20040;-73
2023/02/12 08:30:59;;;;;;;32.53;20.77;;;;;;;;;;5039427;28;20025;-73
2023/02/12 08:33:25;;;;;;;34.30;20.02;;;;;;;;;;5042425;28;20044;-73
2023/02/12 08:35:59;;;;;;;34.78;19.25;;;;;;;;;;5039849;28;20035;-73
2023/02/12 08:38:25;;;;;;;35.72;17.40;;;;;;;;;;5038435;28;20041;-73
2023/02/12 08:40:51;;;;;;;33.40;17.27;;;;;;;;;;5037268;28;20075;-73
2023/02/12 08:43:17;;;;;;;35.53;21.35;;;;;;;;;;5039875;28;20053;-73
2023/02/12 08:45:43;;;;;;;35.28;20.70;;;;;;;;;;5041330;28;20039;-73
2023/02/12 08:48:09;;;;;;;38.72;22.75;;;;;;;;;;5034405;28;20094;-73
2023/02/12 08:50:35;;;;;;;39.85;23.33;;;;;;;;;;5036182;28;20030;-73
2023/02/12 08:53:01;;;;;;;38.42;24.67;;;;;;;;;;5043222;28;20029;-73
2023/02/12 08:55:27;;;;;;;37.90;22.58;;;;;;;;;;5036516;28;20033;-73
2023/02/12 08:57:56;;;;;;;43.30;24.75;;;;;;;;;;5036698;28;20104;-71
2023/02/12 09:00:22;;;;;;;36.67;21.80;;;;;;;;;;5036548;28;20064;-73
2023/02/12 09:02:48;;;;;;;36.60;21.48;;;;;;;;;;5041517;28;20041;-73
2023/02/12 09:05:14;;;;;;;34.20;21.38;;;;;;;;;;5042339;28;20037;-72
2023/02/12 09:07:40;;;;;;;37.20;22.17;;;;;;;;;;5027400;28;20033;-72
2023/02/12 09:10:07;;;;;;;31.38;16.58;;;;;;;;;;5036643;28;20070;-73
2023/02/12 09:12:33;;;;;;;29.73;16.75;;;;;;;;;;5040949;28;20103;-73
2023/02/12 09:14:59;;;;;;;22.08;11.65;;;;;;;;;;5037915;28;20029;-73
2023/02/12 09:17:26;;;;;;;23.33;10.75;;;;;;;;;;5045924;28;20489;-73
2023/02/12 09:19:52;;;;;;;21.50;12.52;;;;;;;;;;5044190;28;20085;-73
2023/02/12 09:22:18;;;;;;;26.48;12.52;;;;;;;;;;5034167;28;20099;-73
2023/02/12 09:24:44;;;;;;;19.08;10.88;;;;;;;;;;5034645;28;20041;-73
2023/02/12 09:27:10;;;;;;;14.70;9.07;;;;;;;;;;5043335;28;20065;-73
2023/02/12 09:29:36;;;;;;;15.02;8.90;;;;;;;;;;5039586;28;20029;-73
2023/02/12 09:32:05;;;;;;;14.68;9.43;;;;;;;;;;5041110;28;20354;-73
2023/02/12 09:34:33;;;;;;;23.92;14.07;;;;;;;;;;5046008;28;20033;-73
2023/02/12 09:36:59;;;;;;;25.48;14.30;;;;;;;;;;5043703;28;20037;-73
2023/02/12 09:39:29;;;;;;;22.38;13.95;;;;;;;;;;5042467;28;20037;-73
2023/02/12 09:42:04;;;;;;;24.10;16.27;;;;;;;;;;5034788;28;20044;-73
2023/02/12 09:44:30;;;;;;;26.35;16.70;;;;;;;;;;5043807;28;20147;-73
2023/02/12 09:46:56;;;;;;;24.15;15.77;;;;;;;;;;5042560;28;20029;-73
2023/02/12 09:49:25;;;;;;;25.67;16.73;;;;;;;;;;5022398;28;20037;-73
2023/02/12 09:51:53;;;;;;;28.92;16.65;;;;;;;;;;5040909;28;20033;-73
2023/02/12 09:54:21;;;;;;;32.17;17.40;;;;;;;;;;5037862;28;20029;-73
2023/02/12 09:56:52;;;;;;;26.60;16.85;;;;;;;;;;5042203;28;20033;-73
2023/02/12 09:59:28;;;;;;;31.30;17.23;;;;;;;;;;5045863;28;20445;-73
2023/02/12 10:01:54;;;;;;;28.15;14.98;;;;;;;;;;5042927;28;20056;-73
2023/02/12 10:04:21;;;;;;;24.92;14.00;;;;;;;;;;5043215;28;20524;-72
2023/02/12 10:06:51;;;;;;;29.92;14.45;;;;;;;;;;5044943;28;20075;-73
2023/02/12 10:09:53;;;;;;;27.50;15.80;;;;;;;;;;5040286;28;20033;-73
2023/02/12 10:12:37;;;;;;;31.02;17.33;;;;;;;;;;4949833;29;20042;-74
2023/02/12 10:15:03;;;;;;;25.90;16.30;;;;;;;;;;5034027;28;20056;-74
2023/02/12 10:17:29;;;;;;;23.65;13.68;;;;;;;;;;5046095;28;20033;-75
2023/02/12 10:20:11;;;;;;;25.50;13.95;;;;;;;;;;5043574;28;20041;-74
2023/02/12 10:22:58;;;;;;;23.90;12.57;;;;;;;;;;5044354;28;20470;-75
2023/02/12 10:25:33;;;;;;;21.67;11.80;;;;;;;;;;5046611;28;20041;-74
2023/02/12 10:28:01;;;;;;;22.17;12.10;;;;;;;;;;5050211;28;20489;-75
2023/02/12 10:30:31;;;;;;;24.70;14.32;;;;;;;;;;5038041;28;20033;-74
2023/02/12 10:33:03;;;;;;;26.52;14.68;;;;;;;;;;5046597;28;20033;-75
2023/02/12 10:35:30;;;;;;;24.98;15.30;;;;;;;;;;5041591;28;20052;-74
2023/02/12 10:38:00;;;;;;;26.83;15.48;;;;;;;;;;5037788;28;20128;-75
2023/02/12 10:40:28;;;;;;;24.00;13.90;;;;;;;;;;5039972;28;20125;-74
2023/02/12 10:42:56;;;;;;;21.17;13.27;;;;;;;;;;5047789;28;20049;-74
2023/02/12 10:45:24;;;;;;;24.48;14.18;;;;;;;;;;5042143;28;20078;-75
2023/02/12 10:47:52;;;;;;;22.95;14.25;;;;;;;;;;5044275;28;20065;-74
2023/02/12 10:50:28;;;;;;;23.48;14.88;;;;;;;;;;5046210;28;20037;-74
2023/02/12 10:52:56;;;;;;;28.45;15.50;;;;;;;;;;5050365;28;20037;-75
2023/02/12 10:55:29;;;;;;;24.15;16.05;;;;;;;;;;5036466;28;20037;-74
2023/02/12 10:57:56;;;;;;;24.75;16.67;;;;;;;;;;5036505;28;20526;-74
2023/02/12 11:00:35;;;;;;;27.00;17.88;;;;;;;;;;5043295;28;20108;-74
2023/02/12 11:03:04;;;;;;;30.35;18.13;;;;;;;;;;5040660;28;20044;-73
2023/02/12 11:05:31;;;;;;;29.63;18.92;;;;;;;;;;5046710;28;20803;-74
2023/02/12 11:07:57;;;;;;;30.25;18.73;;;;;;;;;;5044096;28;20028;-74
2023/02/12 11:10:27;;;;;;;28.85;17.88;;;;;;;;;;5039117;28;20037;-74
2023/02/12 11:12:53;;;;;;;32.65;18.17;;;;;;;;;;5044912;28;20822;-74
2023/02/12 11:15:21;;;;;;;36.97;22.88;;;;;;;;;;5041752;28;20067;-73
2023/02/12 11:18:03;;;;;;;28.08;19.38;;;;;;;;;;5039874;28;20025;-73
2023/02/12 11:20:40;;;;;;;33.88;19.80;;;;;;;;;;5046334;28;20543;-74
2023/02/12 11:23:21;;;;;;;26.50;18.30;;;;;;;;;;5046209;28;20075;-74
2023/02/12 11:25:54;;;;;;;28.95;18.33;;;;;;;;;;5038906;28;20029;-74
2023/02/12 11:28:20;;;;;;;34.28;20.13;;;;;;;;;;5044117;28;20526;-74
2023/02/12 11:30:58;;;;;;;29.67;18.92;;;;;;;;;;5041156;28;20108;-74
2023/02/12 11:33:29;;;;;;;64.25;33.35;;;;;;;;;;5043310;28;20108;-73
2023/02/12 11:35:57;;;;;;;51.08;30.58;;;;;;;;;;5046410;28;20041;-73
2023/02/12 11:38:25;;;;;;;43.28;26.27;;;;;;;;;;5042140;28;20557;-73
2023/02/12 11:40:53;;;;;;;33.03;20.58;;;;;;;;;;5038137;28;20041;-73
2023/02/12 11:43:19;;;;;;;31.17;19.80;;;;;;;;;;5043291;28;20129;-73
2023/02/12 11:45:48;;;;;;;30.00;19.50;;;;;;;;;;5034577;28;20034;-73
2023/02/12 11:48:17;;;;;;;28.25;17.88;;;;;;;;;;5043430;28;20471;-74
2023/02/12 11:50:47;;;;;;;27.92;18.17;;;;;;;;;;5025205;28;20524;-74
2023/02/12 11:53:18;;;;;;;29.95;20.15;;;;;;;;;;5047699;28;20051;-73
2023/02/12 11:55:52;;;;;;;30.05;20.13;;;;;;;;;;5041570;28;20071;-74
2023/02/12 11:58:22;;;;;;;29.90;20.60;;;;;;;;;;5038494;28;20107;-73
2023/02/12 12:00:54;;;;;;;30.38;19.98;;;;;;;;;;5040456;28;20372;-73
2023/02/12 12:03:23;;;;;;;27.65;19.05;;;;;;;;;;5035880;28;20041;-73
2023/02/12 12:05:51;;;;;;;27.58;18.42;;;;;;;;;;5041813;28;20033;-73
2023/02/12 12:08:17;;;;;;;25.85;17.27;;;;;;;;;;5043153;28;20021;-73
2023/02/12 12:10:55;;;;;;;29.20;19.25;;;;;;;;;;5042482;28;20387;-73
2023/02/12 12:13:23;;;;;;;38.50;24.40;;;;;;;;;;5034065;28;20100;-73
2023/02/12 12:21:36;;;;;;;25.45;17.73;;;;;;;;;;5039587;28;20058;-73
2023/02/12 12:24:04;;;;;;;26.77;17.77;;;;;;;;;;5038516;28;20037;-73
2023/02/12 12:26:33;;;;;;;32.17;17.80;;;;;;;;;;5043386;28;20055;-72
2023/02/12 12:29:18;;;;;;;29.50;17.95;;;;;;;;;;5043853;28;20033;-73
2023/02/12 12:31:46;;;;;;;26.55;17.77;;;;;;;;;;5038443;28;20071;-73
2023/02/12 12:34:19;;;;;;;28.85;18.27;;;;;;;;;;5042041;28;20482;-73
2023/02/12 12:37:01;;;;;;;30.23;19.67;;;;;;;;;;5043078;28;20471;-73
2023/02/12 12:39:45;;;;;;;29.47;19.50;;;;;;;;;;5041623;28;20075;-74
2023/02/12 12:42:17;;;;;;;26.45;18.67;;;;;;;;;;5042059;28;20159;-73
2023/02/12 12:45:04;;;;;;;26.85;17.90;;;;;;;;;;5038400;28;20082;-73
2023/02/12 12:47:44;;;;;;;29.05;18.48;;;;;;;;;;5043071;28;20230;-73
2023/02/12 12:50:13;;;;;;;29.40;18.77;;;;;;;;;;5038103;28;20463;-73
2023/02/12 12:52:52;;;;;;;26.27;17.55;;;;;;;;;;5025708;28;20021;-73
2023/02/12 12:55:34;;;;;;;29.45;19.77;;;;;;;;;;5036753;28;20042;-73
2023/02/12 12:58:00;;;;;;;;;;;;;;;;;;5037085;28;20043;-73
2023/02/12 13:00:32;;;;;;;31.40;19.98;;;;;;;;;;5038571;28;19913;-73
2023/02/12 13:03:21;;;;;;;26.40;17.42;;;;;;;;;;5033747;28;20045;-73
2023/02/12 13:05:50;;;;;;;28.27;18.33;;;;;;;;;;4998844;28;20151;-73
2023/02/12 13:08:35;;;;;;;31.38;19.55;;;;;;;;;;5040267;28;20025;-73
2023/02/12 13:11:11;;;;;;;28.65;19.60;;;;;;;;;;5040228;28;20043;-73
2023/02/12 13:13:39;;;;;;;27.95;19.05;;;;;;;;;;5035969;28;20047;-73
2023/02/12 13:16:11;;;;;;;27.60;18.60;;;;;;;;;;5036937;28;20447;-73
2023/02/12 13:18:43;;;;;;;26.30;17.83;;;;;;;;;;5039240;28;20491;-73
2023/02/12 13:21:27;;;;;;;26.73;17.63;;;;;;;;;;5037078;28;20566;-73
2023/02/12 13:23:57;;;;;;;25.40;17.00;;;;;;;;;;5042381;28;20120;-73
2023/02/12 13:26:23;;;;;;;26.88;17.27;;;;;;;;;;5042372;28;20033;-73
2023/02/12 13:28:52;;;;;;;27.13;16.77;;;;;;;;;;5039067;28;20032;-73
2023/02/12 13:31:21;;;;;;;30.80;18.50;;;;;;;;;;5035624;28;20067;-73
2023/02/12 13:33:52;;;;;;;27.40;17.77;;;;;;;;;;5037205;28;20033;-73
2023/02/12 13:36:18;;;;;;;26.55;17.10;;;;;;;;;;5042806;28;20029;-73
2023/02/12 13:38:47;;;;;;;30.42;19.33;;;;;;;;;;5032779;28;20036;-73
2023/02/12 13:41:15;;;;;;;30.17;20.00;;;;;;;;;;5036551;28;20520;-74
2023/02/12 13:43:57;;;;;;;27.17;17.23;;;;;;;;;;5037848;28;20390;-73
2023/02/12 13:46:34;;;;;;;25.65;16.27;;;;;;;;;;5044914;28;20040;-73
2023/02/12 13:49:03;;;;;;;30.02;19.40;;;;;;;;;;5041072;28;20053;-73
2023/02/12 13:51:38;;;;;;;27.67;19.08;;;;;;;;;;5037411;28;20034;-73
2023/02/12 13:54:19;;;;;;;25.20;17.90;;;;;;;;;;5039317;28;20034;-73
2023/02/12 13:56:53;;;;;;;27.87;16.67;;;;;;;;;;5041276;28;20032;-73
2023/02/12 13:59:31;;;;;;;26.10;17.67;;;;;;;;;;5036232;28;20268;-73
2023/02/12 14:01:58;;;;;;;28.65;17.80;;;;;;;;;;5038309;28;20025;-73
2023/02/12 14:04:27;;;;;;;31.08;18.80;;;;;;;;;;5042733;28;20041;-73
2023/02/12 14:06:53;;;;;;;32.40;19.20;;;;;;;;;;5038587;28;20450;-73
2023/02/12 14:09:22;;;;;;;27.83;18.85;;;;;;;;;;5041259;28;20061;-73
2023/02/12 14:11:50;;;;;;;35.22;21.75;;;;;;;;;;5034295;28;20028;-73
2023/02/12 14:14:28;;;;;;;39.10;22.05;;;;;;;;;;5039683;28;20045;-73
2023/02/12 14:16:54;;;;;;;37.08;23.25;;;;;;;;;;5032505;28;20033;-73
2023/02/12 14:19:39;;;;;;;33.15;19.95;;;;;;;;;;5035885;28;20069;-73
2023/02/12 14:22:34;;;;;;;31.63;19.42;;;;;;;;;;5037846;28;20124;-73
2023/02/12 14:25:23;;;;;;;24.33;16.65;;;;;;;;;;5039906;28;20048;-73
2023/02/12 14:27:57;;;;;;;26.00;17.17;;;;;;;;;;5024208;28;20386;-73
2023/02/12 14:30:28;;;;;;;29.98;19.65;;;;;;;;;;5039993;28;20037;-73
2023/02/12 14:32:56;;;;;;;29.65;17.90;;;;;;;;;;5037417;28;20166;-73
2023/02/12 14:35:26;;;;;;;29.05;18.52;;;;;;;;;;5045070;28;20037;-73
2023/02/12 14:37:52;;;;;;;27.80;16.92;;;;;;;;;;5037481;28;20064;-74
2023/02/12 14:40:35;;;;;;;28.52;16.58;;;;;;;;;;5044235;28;20037;-73